Time;durP1;ratioP1;P1;durP2;ratioP2;P2;SDS_P1;SDS_P2;PMS_P1;PMS_P2;Temp;Humidity;BMP_temperature;BMP_pressure;BME280_temperature;BME280_humidity;BME280_pressure;Samples;Min_cycle;Max_cycle;Signal;HPM_P1;HPM_P2
2022/12/27 00:01:53;;;;;;;6.32;4.65;;;;;;;5.48;100.00;98981.50;5053903;28;20201;-59
2022/12/27 00:04:19;;;;;;;8.27;5.70;;;;;;;5.81;100.00;99017.84;5053935;28;20695;-60
2022/12/27 00:06:44;;;;;;;5.50;5.00;;;;;;;5.82;100.00;99030.66;5054183;28;20186;-59
2022/12/27 00:09:09;;;;;;;11.88;5.00;;;;;;;5.79;100.00;99014.50;5054130;28;20181;-59
2022/12/27 00:11:35;;;;;;;6.82;4.82;;;;;;;5.71;100.00;99007.09;5054080;28;20604;-59
2022/12/27 00:14:02;;;;;;;6.15;4.78;;;;;;;5.85;100.00;99027.97;5053768;28;20170;-59
2022/12/27 00:16:28;;;;;;;5.68;5.00;;;;;;;5.79;100.00;99023.03;5054013;28;20694;-59
2022/12/27 00:18:54;;;;;;;9.63;4.65;;;;;;;5.45;100.00;98967.94;5053919;28;20205;-59
2022/12/27 00:21:20;;;;;;;7.00;5.20;;;;;;;5.77;100.00;99011.97;5053570;28;20590;-60
2022/12/27 00:23:49;;;;;;;5.28;4.25;;;;;;;5.46;100.00;98955.06;5054015;28;20244;-59
2022/12/27 00:26:25;;;;;;;6.28;4.38;;;;;;;5.79;100.00;99019.63;5054063;28;20173;-60
2022/12/27 00:28:51;;;;;;;4.75;4.25;;;;;;;5.78;100.00;99008.50;5053815;28;20654;-59
2022/12/27 00:31:17;;;;;;;10.05;6.22;;;;;;;5.89;100.00;99019.22;5053131;28;20194;-59
2022/12/27 00:33:45;;;;;;;22.20;11.10;;;;;;;5.76;100.00;99010.31;5052856;28;20166;-59
2022/12/27 00:36:13;;;;;;;14.23;8.70;;;;;;;5.70;100.00;99002.00;5052900;28;20248;-59
2022/12/27 00:38:39;;;;;;;9.95;6.13;;;;;;;5.52;100.00;98959.94;5053300;28;20234;-59
2022/12/27 00:41:05;;;;;;;8.02;5.05;;;;;;;5.51;100.00;98963.41;5053279;28;20256;-59
2022/12/27 00:43:30;;;;;;;7.13;5.13;;;;;;;5.11;100.00;98917.13;5053348;28;20659;-59
2022/12/27 00:45:56;;;;;;;7.13;4.95;;;;;;;5.57;100.00;98996.53;5053130;28;20180;-59
2022/12/27 00:48:22;;;;;;;9.07;5.28;;;;;;;5.69;100.00;99008.91;5053066;28;20215;-60
2022/12/27 00:50:48;;;;;;;7.97;5.13;;;;;;;5.38;100.00;98941.72;5053131;28;20227;-59
2022/12/27 00:53:13;;;;;;;6.50;4.85;;;;;;;5.09;100.00;98898.41;5052740;28;20178;-59
2022/12/27 00:55:42;;;;;;;6.90;4.55;;;;;;;5.48;100.00;98965.28;5053560;28;20227;-59
2022/12/27 00:58:08;;;;;;;5.57;4.93;;;;;;;5.05;100.00;98901.97;5053509;28;20170;-59
2022/12/27 01:00:33;;;;;;;6.88;4.90;;;;;;;5.28;100.00;98939.53;5052860;28;20173;-59
2022/12/27 01:02:59;;;;;;;6.93;4.95;;;;;;;5.37;100.00;98952.84;5090763;28;20215;-59
2022/12/27 01:05:24;;;;;;;7.63;5.45;;;;;;;5.63;100.00;99001.44;5091167;28;20191;-59
2022/12/27 01:07:50;;;;;;;9.80;5.60;;;;;;;5.48;100.00;98973.78;5050452;28;20185;-59
2022/12/27 01:10:15;;;;;;;7.50;5.10;;;;;;;5.38;100.00;98936.56;5050902;28;20186;-60
2022/12/27 01:12:41;;;;;;;8.93;5.60;;;;;;;5.30;100.00;98928.34;5051103;28;20217;-59
2022/12/27 01:15:08;;;;;;;7.10;5.10;;;;;;;5.61;100.00;98979.28;5050334;28;20616;-60
2022/12/27 01:17:34;;;;;;;9.13;5.88;;;;;;;5.06;100.00;98878.00;5050245;28;20276;-59
2022/12/27 01:19:59;;;;;;;8.02;5.53;;;;;;;5.61;100.00;98963.88;5050694;28;20182;-59
2022/12/27 01:22:25;;;;;;;7.30;5.82;;;;;;;5.23;100.00;98914.09;5050164;28;20212;-59
2022/12/27 01:24:50;;;;;;;6.63;5.10;;;;;;;5.21;100.00;98915.88;5050190;28;20177;-59
2022/12/27 01:27:16;;;;;;;8.90;4.97;;;;;;;5.16;100.00;98940.03;5050154;28;20295;-59
2022/12/27 01:29:41;;;;;;;6.93;5.20;;;;;;;5.44;100.00;98977.41;5050301;28;20243;-59
2022/12/27 01:32:07;;;;;;;8.13;4.93;;;;;;;5.55;100.00;98993.19;5049874;28;20205;-59
2022/12/27 01:34:32;;;;;;;8.07;4.53;;;;;;;5.57;100.00;98978.56;5035396;28;20194;-59
2022/12/27 01:36:58;;;;;;;6.28;4.45;;;;;;;5.37;100.00;98950.28;5030955;28;20182;-59
2022/12/27 01:39:23;;;;;;;7.40;4.78;;;;;;;5.65;100.00;98986.78;5030247;28;20197;-59
2022/12/27 01:44:38;;;;;;;8.75;5.43;;;;;;;5.83;100.00;98993.78;5035600;28;20197;-59
2022/12/27 01:47:13;;;;;;;8.25;5.63;;;;;;;5.86;100.00;98982.56;5057393;28;20185;-59
2022/12/27 01:49:42;;;;;;;8.40;5.78;;;;;;;5.29;100.00;98890.75;5059220;28;20259;-60
2022/12/27 01:52:10;;;;;;;7.82;6.38;;;;;;;5.64;100.00;98941.50;5059738;28;20177;-59
2022/12/27 01:54:36;;;;;;;7.10;5.70;;;;;;;5.15;100.00;98875.09;5036675;28;20189;-59
2022/12/27 01:57:02;;;;;;;7.13;5.68;;;;;;;5.62;100.00;98942.44;5037065;28;20187;-59
2022/12/27 01:59:28;;;;;;;6.75;5.07;;;;;;;5.43;100.00;98919.25;5037038;28;20199;-59
2022/12/27 02:01:53;;;;;;;8.90;5.80;;;;;;;5.66;100.00;98941.44;5036444;28;20208;-59
2022/12/27 02:04:22;;;;;;;9.40;5.35;;;;;;;5.71;100.00;98939.53;5036483;28;20564;-59
2022/12/27 02:06:50;;;;;;;8.88;5.40;;;;;;;5.66;100.00;98934.56;5036729;28;20181;-59
2022/12/27 02:09:28;;;;;;;8.10;5.70;;;;;;;5.70;100.00;98953.22;5036553;28;20273;-59
2022/12/27 02:11:56;;;;;;;6.45;5.18;;;;;;;5.67;100.00;98943.94;5036481;28;20174;-59
2022/12/27 02:14:28;;;;;;;6.05;4.70;;;;;;;5.35;100.00;98882.81;5037189;28;20187;-59
2022/12/27 02:16:56;;;;;;;5.25;4.75;;;;;;;5.63;100.00;98947.53;5036742;28;20162;-59
2022/12/27 02:19:41;;;;;;;8.93;5.20;;;;;;;5.61;100.00;98936.50;5036320;28;20191;-59
2022/12/27 02:22:13;;;;;;;7.50;4.72;;;;;;;5.67;100.00;98930.28;5056365;28;20584;-59
2022/12/27 02:24:57;;;;;;;6.97;5.40;;;;;;;5.69;100.00;98936.16;5061034;28;20603;-59
2022/12/27 02:27:44;;;;;;;7.20;4.13;;;;;;;5.69;100.00;98947.28;5097341;28;20233;-60
2022/12/27 02:30:12;;;;;;;4.70;4.15;;;;;;;5.44;100.00;98904.69;5096893;28;20221;-60
2022/12/27 02:32:59;;;;;;;5.35;4.25;;;;;;;5.72;100.00;98946.31;5096374;28;20305;-60
2022/12/27 02:35:51;;;;;;;5.28;4.10;;;;;;;5.66;100.00;98957.66;5096486;28;20175;-60
2022/12/27 02:38:20;;;;;;;6.22;4.88;;;;;;;5.43;100.00;98908.97;5095956;28;20184;-60
2022/12/27 02:57:07;;;;;;;6.88;4.72;;;;;;;5.52;100.00;98916.31;5036388;28;20660;-60
2022/12/27 02:58:52;;;;;;;9.35;5.55;;;;;;;5.69;100.00;98929.31;5024266;28;20184;-60
2022/12/27 03:04:37;;;;;;;6.28;5.20;;;;;;;5.73;100.00;98918.03;4993881;28;20218;-60
2022/12/27 03:07:45;;;;;;;10.20;5.30;;;;;;;5.70;100.00;98923.28;4993988;28;20176;-60
2022/12/27 03:16:16;;;;;;;6.35;4.75;;;;;;;5.42;100.00;98868.00;5032835;28;20185;-60
2022/12/27 03:18:57;;;;;;;7.07;5.00;;;;;;;5.66;100.00;98921.72;5032532;28;20183;-60
2022/12/27 03:27:27;;;;;;;8.32;5.70;;;;;;;5.05;100.00;98822.47;5033023;28;20228;-60
2022/12/27 03:33:13;;;;;;;10.23;6.88;;;;;;;5.68;100.00;98931.94;5072998;28;20263;-60
2022/12/27 03:38:49;;;;;;;7.75;5.38;;;;;;;5.58;100.00;98916.06;5012747;28;20310;-60
2022/12/27 03:44:23;;;;;;;9.30;5.13;;;;;;;5.60;100.00;98919.41;5012677;28;20163;-60
2022/12/27 03:46:55;;;;;;;5.95;4.80;;;;;;;5.57;100.00;98896.44;5003933;28;20198;-60
2022/12/27 03:49:34;;;;;;;7.22;5.13;;;;;;;5.64;100.00;98899.56;4992713;28;20175;-60
2022/12/27 03:52:13;;;;;;;6.15;5.22;;;;;;;5.68;100.00;98913.97;4993169;28;20199;-60
2022/12/27 03:54:41;;;;;;;5.78;4.95;;;;;;;5.53;100.00;98887.19;4993169;28;20183;-60
2022/12/27 03:57:11;;;;;;;6.03;4.57;;;;;;;5.57;100.00;98886.19;4992481;28;20211;-60
2022/12/27 03:59:37;;;;;;;8.40;5.50;;;;;;;5.59;100.00;98889.50;4992683;28;20674;-60
2022/12/27 04:02:03;;;;;;;7.07;5.40;;;;;;;5.22;100.00;98822.63;4992329;28;20689;-60
2022/12/27 04:04:29;;;;;;;2.30;2.20;;;;;;;5.29;100.00;98833.47;4992379;28;20176;-60
2022/12/27 04:06:54;;;;;;;1.70;1.60;;;;;;;5.66;100.00;98878.09;4992315;28;20180;-60
2022/12/27 04:36:42;;;;;;;12.43;8.70;;;;;;;5.75;100.00;98923.06;5053428;28;20192;-60
2022/12/27 04:39:07;;;;;;;12.75;8.27;;;;;;;5.38;100.00;98890.41;5054110;28;20300;-60
2022/12/27 04:55:23;;;;;;;10.40;7.88;;;;;;;5.15;100.00;98922.97;5053374;28;20231;-60
2022/12/27 04:57:49;;;;;;;10.98;7.55;;;;;;;4.58;100.00;98812.41;5053805;28;20177;-60
2022/12/27 05:03:05;;;;;;;9.40;5.70;;;;;;;5.05;100.00;98908.81;5053029;28;20678;-60
2022/12/27 05:05:32;;;;;;;6.47;4.93;;;;;;;5.07;100.00;98913.00;5053132;28;20176;-60
2022/12/27 05:16:09;;;;;;;8.60;4.45;;;;;;;5.19;100.00;98934.78;5052719;28;20165;-60
2022/12/27 05:18:35;;;;;;;8.27;5.18;;;;;;;5.07;100.00;98930.13;5052893;28;20253;-60
2022/12/27 05:21:05;;;;;;;15.75;8.40;;;;;;;5.15;100.00;98936.63;5052602;28;20252;-60
2022/12/27 05:26:28;;;;;;;21.65;11.82;;;;;;;4.78;100.00;98891.94;5052852;28;20248;-60
2022/12/27 05:28:56;;;;;;;24.23;13.20;;;;;;;4.84;100.00;98901.97;5053102;28;20170;-60
2022/12/27 05:31:23;;;;;;;15.65;8.90;;;;;;;4.77;100.00;98880.84;5052225;28;20196;-60
2022/12/27 05:33:50;;;;;;;12.57;7.45;;;;;;;4.88;100.00;98891.53;5052147;28;20253;-60
2022/12/27 05:36:16;;;;;;;10.10;6.72;;;;;;;5.05;100.00;98919.94;5052140;28;20197;-60
2022/12/27 05:38:41;;;;;;;11.48;7.60;;;;;;;5.09;100.00;98934.31;5052383;28;20682;-60
2022/12/27 05:41:07;;;;;;;15.00;8.48;;;;;;;4.86;100.00;98890.75;5052009;28;20201;-60
2022/12/27 05:43:32;;;;;;;18.45;12.18;;;;;;;4.80;100.00;98885.03;5052247;28;20203;-60
2022/12/27 05:46:07;;;;;;;14.00;10.30;;;;;;;5.11;100.00;98927.38;5052320;28;20169;-60
2022/12/27 05:48:34;;;;;;;16.77;10.68;;;;;;;4.82;100.00;98884.06;5052289;28;20173;-60
2022/12/27 05:51:10;;;;;;;19.05;11.63;;;;;;;4.61;100.00;98841.31;5052837;28;20178;-60
2022/12/27 05:53:36;;;;;;;16.30;12.20;;;;;;;5.12;100.00;98921.34;5053115;28;20184;-60
2022/12/27 05:56:01;;;;;;;11.45;6.75;;;;;;;4.78;100.00;98879.94;5052178;28;20169;-60
2022/12/27 05:58:27;;;;;;;42.88;25.92;;;;;;;5.10;100.00;98933.41;5052178;28;20228;-60
2022/12/27 06:00:53;;;;;;;38.03;23.77;;;;;;;5.11;100.00;98947.91;5052443;28;20200;-60
2022/12/27 06:03:19;;;;;;;33.28;20.33;;;;;;;4.76;100.00;98906.53;5052092;28;20544;-60
2022/12/27 06:05:44;;;;;;;31.27;19.02;;;;;;;5.06;100.00;98959.22;5052921;28;20179;-61
2022/12/27 06:08:10;;;;;;;26.45;15.02;;;;;;;4.93;100.00;98935.78;5052132;28;20203;-60
2022/12/27 06:10:36;;;;;;;27.77;16.98;;;;;;;4.79;100.00;98909.81;5052074;28;20315;-60
2022/12/27 06:13:02;;;;;;;25.85;16.70;;;;;;;4.77;100.00;98898.78;5052040;28;20227;-60
2022/12/27 06:15:27;;;;;;;22.67;14.18;;;;;;;4.76;100.00;98903.97;5052063;28;20264;-60
2022/12/27 06:17:53;;;;;;;11.20;7.80;;;;;;;4.81;100.00;98891.81;5051685;28;20181;-60
2022/12/27 06:20:18;;;;;;;11.02;7.20;;;;;;;4.69;100.00;98876.91;5052072;28;20174;-60
2022/12/27 06:22:44;;;;;;;14.07;8.55;;;;;;;5.10;100.00;98935.97;5051919;28;20193;-60
2022/12/27 06:25:10;;;;;;;7.32;4.90;;;;;;;4.85;100.00;98875.44;5030364;28;20185;-60
2022/12/27 06:27:35;;;;;;;4.82;3.40;;;;;;;4.98;100.00;98871.50;5029924;28;20191;-61
2022/12/27 06:30:01;;;;;;;3.67;3.10;;;;;;;5.24;100.00;98909.78;5029845;28;20186;-61
2022/12/27 06:32:26;;;;;;;3.63;3.33;;;;;;;5.25;100.00;98903.78;5029818;28;20241;-61
2022/12/27 06:34:52;;;;;;;6.47;3.60;;;;;;;5.24;100.00;98882.41;5033915;28;20196;-60
2022/12/27 06:37:17;;;;;;;3.15;2.88;;;;;;;5.33;100.00;98891.47;5033906;28;20201;-61
2022/12/27 06:39:44;;;;;;;3.13;2.75;;;;;;;5.69;100.00;98926.75;5033369;28;20186;-60
2022/12/27 06:42:09;;;;;;;3.55;3.25;;;;;;;5.91;100.00;98934.44;5033162;28;20202;-61
2022/12/27 06:44:35;;;;;;;3.63;2.50;;;;;;;5.94;100.00;98924.84;5033450;28;20758;-60
2022/12/27 06:47:00;;;;;;;2.92;2.60;;;;;;;5.98;100.00;98907.59;5033236;28;20170;-60
2022/12/27 06:49:26;;;;;;;5.43;2.80;;;;;;;5.76;100.00;98842.63;5033167;28;20178;-60
2022/12/27 06:51:51;;;;;;;3.28;3.00;;;;;;;5.82;100.00;98848.34;5033289;28;20193;-60
2022/12/27 06:54:17;;;;;;;3.17;2.88;;;;;;;6.20;100.00;98887.78;5033009;28;20317;-60
2022/12/27 06:56:45;;;;;;;2.60;2.47;;;;;;;6.35;97.76;98898.22;5049336;28;20201;-60
2022/12/27 06:59:10;;;;;;;2.40;2.20;;;;;;;6.78;96.20;98949.44;5072767;28;20257;-60
2022/12/27 07:01:36;;;;;;;3.90;3.20;;;;;;;6.75;98.38;98936.69;5075667;28;20248;-60
2022/12/27 07:04:01;;;;;;;23.88;17.63;;;;;;;6.61;99.20;98908.22;5075004;28;20689;-60
2022/12/27 07:06:28;;;;;;;25.20;17.85;;;;;;;6.86;100.00;98944.75;5075280;28;20173;-60
2022/12/27 07:08:56;;;;;;;19.80;13.98;;;;;;;6.79;100.00;98916.81;5074605;28;20199;-60
2022/12/27 07:11:22;;;;;;;8.52;6.20;;;;;;;6.66;100.00;98872.84;5075050;28;20209;-60
2022/12/27 07:13:52;;;;;;;3.65;3.35;;;;;;;6.63;97.54;98861.84;5075253;28;20177;-60
2022/12/27 07:16:20;;;;;;;14.27;6.07;;;;;;;6.80;97.39;98887.63;5074642;28;20252;-60
2022/12/27 07:18:46;;;;;;;12.38;8.75;;;;;;;6.89;96.90;98890.63;5074547;28;20177;-60
2022/12/27 07:21:14;;;;;;;20.48;12.65;;;;;;;6.55;97.88;98849.34;5074806;28;20183;-60
2022/12/27 07:23:40;;;;;;;25.50;14.15;;;;;;;6.81;98.98;98900.41;5074981;28;20223;-60
2022/12/27 07:26:10;;;;;;;35.58;20.63;;;;;;;6.82;99.27;98904.66;5075279;28;20181;-60
2022/12/27 07:28:36;;;;;;;34.40;23.15;;;;;;;7.26;98.89;98962.63;5074455;28;20543;-60
2022/12/27 07:31:13;;;;;;;38.05;22.98;;;;;;;7.03;98.82;98944.84;5074509;28;20196;-59
2022/12/27 07:33:40;;;;;;;25.95;15.32;;;;;;;7.14;99.79;98946.91;5074362;28;20189;-59
2022/12/27 07:36:08;;;;;;;35.30;21.40;;;;;;;7.05;99.55;98937.06;5074272;28;20181;-60
2022/12/27 07:38:34;;;;;;;32.70;21.92;;;;;;;7.11;100.00;98935.00;5074190;28;20205;-60
2022/12/27 07:41:00;;;;;;;49.47;28.13;;;;;;;6.90;100.00;98892.28;5074424;28;20259;-60
2022/12/27 07:43:32;;;;;;;47.03;28.10;;;;;;;6.89;100.00;98888.06;5074342;28;20188;-60
2022/12/27 07:46:06;;;;;;;46.05;27.83;;;;;;;7.03;100.00;98906.25;5075117;28;20177;-60
2022/12/27 07:48:32;;;;;;;42.30;28.48;;;;;;;7.18;100.00;98915.00;5074324;28;20168;-60
2022/12/27 07:50:57;;;;;;;60.83;28.77;;;;;;;7.38;100.00;98930.31;5074874;28;20569;-60
2022/12/27 07:53:23;;;;;;;60.47;30.17;;;;;;;7.15;99.79;98879.94;5073241;28;20234;-59
2022/12/27 07:55:49;;;;;;;57.78;29.15;;;;;;;7.06;99.70;98857.19;5072550;28;20173;-60
2022/12/27 07:58:15;;;;;;;70.72;32.67;;;;;;;7.53;99.96;98930.44;5074144;28;20176;-60
2022/12/27 08:00:41;;;;;;;74.30;33.25;;;;;;;7.36;99.06;98875.50;5074094;28;20256;-60
2022/12/27 08:03:06;;;;;;;71.78;33.83;;;;;;;7.64;99.15;98919.63;5072932;28;20212;-60
2022/12/27 08:05:31;;;;;;;72.68;35.60;;;;;;;7.78;99.09;98925.75;5073920;28;20238;-60
2022/12/27 08:08:00;;;;;;;93.72;41.40;;;;;;;7.60;98.53;98876.88;5073830;28;20251;-60
2022/12/27 08:10:26;;;;;;;123.55;49.95;;;;;;;7.91;97.64;98925.97;5073984;28;20223;-59
2022/12/27 08:12:51;;;;;;;101.18;44.25;;;;;;;7.93;98.22;98930.13;5074186;28;20676;-59
2022/12/27 08:15:17;;;;;;;77.22;36.13;;;;;;;8.03;98.61;98930.53;5073648;28;20615;-59
2022/12/27 08:17:42;;;;;;;46.50;24.75;;;;;;;7.92;96.34;98897.56;5073768;28;20234;-59
2022/12/27 08:20:13;;;;;;;40.67;22.17;;;;;;;7.96;96.07;98877.63;5073609;28;20615;-59
2022/12/27 08:22:38;;;;;;;43.40;23.70;;;;;;;8.26;96.84;98928.47;5074131;28;20185;-60
2022/12/27 08:25:04;;;;;;;47.67;25.85;;;;;;;8.13;97.24;98901.63;5073538;28;20192;-60
2022/12/27 08:27:30;;;;;;;87.30;33.90;;;;;;;8.42;96.00;98934.53;5073498;28;20173;-59
2022/12/27 08:29:55;;;;;;;43.47;25.63;;;;;;;8.50;95.62;98932.38;5074313;28;20252;-59
2022/12/27 08:32:20;;;;;;;32.90;20.20;;;;;;;8.35;94.64;98899.66;5073741;28;20224;-59
2022/12/27 08:34:47;;;;;;;32.05;19.88;;;;;;;8.37;94.76;98892.66;5073962;28;20174;-59
2022/12/27 08:37:14;;;;;;;38.83;20.75;;;;;;;8.44;95.04;98895.78;5073285;28;20723;-59
2022/12/27 08:39:40;;;;;;;40.30;21.85;;;;;;;8.75;94.71;98940.50;5073302;28;20177;-59
2022/12/27 08:42:05;;;;;;;38.67;21.55;;;;;;;8.82;94.46;98939.28;5073206;28;20200;-59
2022/12/27 08:44:31;;;;;;;43.53;21.38;;;;;;;8.92;93.89;98932.69;5073693;28;20177;-59
2022/12/27 08:46:58;;;;;;;38.67;21.17;;;;;;;8.56;93.00;98856.44;5073114;28;20169;-59
2022/12/27 08:49:23;;;;;;;54.60;23.58;;;;;;;9.05;93.02;98936.28;5073085;28;20230;-59
2022/12/27 08:51:49;;;;;;;33.80;19.90;;;;;;;9.09;92.73;98919.72;5073316;28;20185;-59
2022/12/27 08:54:14;;;;;;;42.10;21.50;;;;;;;9.22;92.26;98923.31;5072999;28;20169;-59
2022/12/27 08:56:39;;;;;;;38.05;20.27;;;;;;;8.97;91.69;98876.50;5072739;28;20176;-59
2022/12/27 08:59:05;;;;;;;35.03;18.30;;;;;;;9.12;90.32;98857.59;5072872;28;20581;-59
2022/12/27 09:01:31;;;;;;;35.47;19.67;;;;;;;8.98;89.84;98821.38;5072894;28;20168;-59
2022/12/27 09:03:56;;;;;;;40.30;19.40;;;;;;;9.58;89.20;98895.41;5072732;28;20658;-59
2022/12/27 09:06:23;;;;;;;36.33;19.65;;;;;;;9.73;88.75;98904.06;5072855;28;20169;-60
2022/12/27 09:08:49;;;;;;;46.05;23.17;;;;;;;9.56;88.01;98866.25;5072840;28;20322;-59
2022/12/27 09:11:17;;;;;;;46.45;24.48;;;;;;;9.45;87.38;98832.47;5072746;28;20177;-59
2022/12/27 09:13:43;;;;;;;55.97;25.17;;;;;;;9.90;86.63;98877.16;5072680;28;20698;-59
2022/12/27 09:16:13;;;;;;;45.70;21.58;;;;;;;10.06;86.42;98890.03;5072453;28;20203;-61
2022/12/27 09:18:39;;;;;;;41.20;22.23;;;;;;;10.15;86.08;98881.75;5072601;28;20188;-60
2022/12/27 09:21:07;;;;;;;44.20;22.08;;;;;;;9.91;85.42;98821.09;5073175;28;20331;-60
2022/12/27 09:23:33;;;;;;;52.28;22.67;;;;;;;10.13;84.54;98838.81;5072484;28;20265;-62
2022/12/27 09:26:03;;;;;;;38.85;22.20;;;;;;;10.34;84.84;98861.63;5072579;28;20184;-60
2022/12/27 09:28:28;;;;;;;93.93;40.10;;;;;;;10.42;84.59;98857.63;5073429;28;20176;-59
2022/12/27 09:30:54;;;;;;;54.38;27.73;;;;;;;10.30;83.24;98818.75;5072323;28;20189;-59
2022/12/27 09:33:19;;;;;;;41.90;21.50;;;;;;;10.42;82.88;98818.84;5072280;28;20248;-59
2022/12/27 09:35:44;;;;;;;34.53;20.40;;;;;;;10.61;82.83;98840.06;5072180;28;20230;-60
2022/12/27 09:38:10;;;;;;;43.17;21.30;;;;;;;10.86;82.18;98865.25;5072444;28;20173;-60
2022/12/27 09:40:36;;;;;;;33.55;20.85;;;;;;;10.70;81.29;98817.94;5072648;28;20205;-60
2022/12/27 09:43:07;;;;;;;32.15;20.67;;;;;;;10.96;81.09;98845.59;5072023;28;20246;-60
2022/12/27 09:45:39;;;;;;;38.90;19.63;;;;;;;11.03;81.00;98854.69;5072990;28;20184;-59
2022/12/27 09:48:12;;;;;;;32.22;20.45;;;;;;;11.04;81.07;98853.75;5072363;28;20165;-59
2022/12/27 09:50:48;;;;;;;35.83;19.25;;;;;;;11.11;81.31;98849.81;5072618;28;20486;-59
2022/12/27 09:53:20;;;;;;;32.97;18.60;;;;;;;10.99;81.02;98819.53;5072329;28;20647;-59
2022/12/27 09:55:50;;;;;;;34.80;19.55;;;;;;;11.15;80.22;98831.41;5072303;28;20666;-60
2022/12/27 09:58:37;;;;;;;34.67;18.13;;;;;;;11.28;80.02;98842.66;5070339;28;20209;-59
2022/12/27 10:01:17;;;;;;;31.48;19.63;;;;;;;11.12;79.89;98810.03;5069932;28;20172;-59
2022/12/27 10:03:43;;;;;;;39.08;21.17;;;;;;;11.41;79.70;98850.44;5070441;28;20670;-59
2022/12/27 10:06:14;;;;;;;38.13;20.65;;;;;;;11.47;79.67;98853.47;5069850;28;20172;-59
2022/12/27 10:08:58;;;;;;;36.90;19.77;;;;;;;11.19;79.28;98795.78;5073748;28;20713;-59
2022/12/27 10:11:38;;;;;;;32.65;19.05;;;;;;;11.25;79.10;98793.63;5073859;28;20169;-60
2022/12/27 10:14:42;;;;;;;29.17;19.10;;;;;;;11.57;79.12;98838.16;5074314;28;20193;-59
2022/12/27 10:17:16;;;;;;;36.90;20.80;;;;;;;11.69;78.56;98842.56;5073723;28;20180;-60
2022/12/27 10:20:09;;;;;;;27.73;17.55;;;;;;;11.72;79.52;98844.97;5074519;28;20605;-59
2022/12/27 10:22:40;;;;;;;29.20;16.80;;;;;;;11.74;80.72;98837.91;5074410;28;20539;-59
2022/12/27 10:25:13;;;;;;;24.20;14.05;;;;;;;11.80;81.09;98835.72;5073874;28;20185;-60
2022/12/27 10:27:39;;;;;;;25.60;14.95;;;;;;;11.80;81.51;98825.34;5073535;28;20687;-59
2022/12/27 10:30:16;;;;;;;25.23;14.68;;;;;;;11.51;81.66;98772.03;5075387;28;20185;-59
2022/12/27 10:32:42;;;;;;;27.77;14.70;;;;;;;11.82;81.97;98822.66;5076785;28;20279;-60
2022/12/27 10:35:15;;;;;;;24.08;14.95;;;;;;;11.69;82.14;98799.34;5075599;28;20663;-59
2022/12/27 10:37:42;;;;;;;33.13;17.02;;;;;;;11.78;82.45;98805.66;5075994;28;20161;-59
2022/12/27 10:40:18;;;;;;;29.88;16.05;;;;;;;11.87;82.83;98805.03;5075909;28;20172;-60
2022/12/27 10:42:53;;;;;;;27.70;14.90;;;;;;;11.63;82.56;98754.84;5076036;28;20197;-60
2022/12/27 10:45:35;;;;;;;27.23;16.30;;;;;;;12.01;83.21;98802.38;5075531;28;20207;-59
2022/12/27 10:48:20;;;;;;;27.13;15.02;;;;;;;11.93;83.20;98781.28;5076291;28;20173;-60
2022/12/27 10:51:09;;;;;;;28.73;15.02;;;;;;;12.13;82.79;98807.53;5075398;28;20274;-60
2022/12/27 10:53:35;;;;;;;58.05;26.92;;;;;;;12.21;83.21;98804.41;5075431;28;20189;-60
2022/12/27 10:56:33;;;;;;;46.85;22.42;;;;;;;12.30;82.22;98799.41;5075262;28;20173;-60
2022/12/27 10:59:18;;;;;;;43.65;20.98;;;;;;;12.34;82.34;98795.69;5075268;28;20173;-61
2022/12/27 11:01:45;;;;;;;32.85;18.40;;;;;;;12.32;81.79;98770.78;5074727;28;20679;-60
2022/12/27 11:04:15;;;;;;;62.60;29.70;;;;;;;12.46;82.24;98799.16;5075081;28;20201;-60
2022/12/27 11:06:42;;;;;;;59.67;27.08;;;;;;;12.40;82.26;98779.69;5075043;28;20318;-60
2022/12/27 11:09:19;;;;;;;32.95;17.40;;;;;;;12.24;82.23;98742.75;5074946;28;20173;-60
2022/12/27 11:11:45;;;;;;;32.33;18.35;;;;;;;12.57;82.12;98792.31;5075044;28;20303;-60
2022/12/27 11:14:16;;;;;;;31.88;16.60;;;;;;;12.63;80.79;98783.25;5075255;28;20634;-60
2022/12/27 11:16:42;;;;;;;33.88;16.30;;;;;;;12.37;80.94;98721.97;5075238;28;20244;-60
2022/12/27 11:19:20;;;;;;;27.13;13.95;;;;;;;12.47;80.40;98712.59;5073642;28;20181;-59
2022/12/27 11:21:46;;;;;;;63.00;34.42;;;;;;;12.73;81.01;98747.91;5074570;28;20162;-59
2022/12/27 11:24:15;;;;;;;26.90;14.75;;;;;;;12.79;82.08;98752.66;5074783;28;20205;-60
2022/12/27 11:26:57;;;;;;;26.40;14.70;;;;;;;12.78;82.96;98751.81;5074716;28;20165;-60
2022/12/27 11:29:26;;;;;;;29.30;13.73;;;;;;;12.83;83.72;98747.13;5074724;28;20165;-59
2022/12/27 11:31:53;;;;;;;25.92;12.73;;;;;;;12.91;83.67;98747.41;5075058;28;20188;-59
2022/12/27 11:34:31;;;;;;;15.82;8.88;;;;;;;12.94;84.08;98736.78;5074913;28;20255;-60
2022/12/27 11:37:13;;;;;;;10.27;5.90;;;;;;;12.99;84.36;98746.88;5074563;28;20179;-59
2022/12/27 11:39:40;;;;;;;17.00;8.88;;;;;;;13.03;83.96;98753.50;5074529;28;20179;-60
2022/12/27 11:42:21;;;;;;;27.08;15.65;;;;;;;13.05;83.57;98752.47;5074383;28;20181;-60
2022/12/27 11:44:58;;;;;;;28.45;15.98;;;;;;;13.03;83.44;98738.75;5074781;28;20165;-60
2022/12/27 11:47:44;;;;;;;34.63;15.68;;;;;;;13.01;82.66;98729.41;5074737;28;20171;-60
2022/12/27 11:50:28;;;;;;;33.67;15.48;;;;;;;13.15;81.19;98748.25;5075169;28;20176;-60
2022/12/27 11:53:05;;;;;;;19.60;10.93;;;;;;;13.16;80.19;98744.72;5075138;28;20169;-59
2022/12/27 11:55:52;;;;;;;17.42;9.40;;;;;;;13.07;80.75;98741.97;5074835;28;20184;-60
2022/12/27 11:58:23;;;;;;;20.20;10.63;;;;;;;12.99;81.94;98733.88;5074431;28;20601;-60
2022/12/27 12:00:59;;;;;;;19.05;10.65;;;;;;;12.73;82.19;98690.78;5074236;28;20301;-60
2022/12/27 12:03:28;;;;;;;17.00;8.75;;;;;;;13.07;82.98;98739.38;5074335;28;20283;-60
2022/12/27 12:06:14;;;;;;;14.25;8.90;;;;;;;13.10;83.52;98739.13;5074029;28;20200;-59
2022/12/27 12:09:11;;;;;;;10.35;7.55;;;;;;;13.16;83.10;98736.06;5073682;28;20173;-60
2022/12/27 12:12:09;;;;;;;12.25;7.22;;;;;;;13.17;82.65;98740.31;5074192;28;20157;-59
2022/12/27 12:14:53;;;;;;;17.70;10.32;;;;;;;13.18;82.51;98736.81;5071510;28;20181;-59
2022/12/27 12:17:57;;;;;;;16.08;10.82;;;;;;;13.13;83.30;98736.31;5072055;28;20176;-60
2022/12/27 12:20:40;;;;;;;15.25;9.32;;;;;;;13.11;84.03;98740.78;5071518;28;20655;-59
2022/12/27 12:23:15;;;;;;;18.70;9.50;;;;;;;13.01;84.38;98732.03;5071589;28;20196;-59
2022/12/27 12:25:59;;;;;;;14.02;7.95;;;;;;;12.67;84.44;98680.84;5071290;28;20271;-60
2022/12/27 12:28:43;;;;;;;10.82;6.75;;;;;;;12.98;85.04;98746.06;5071786;28;20574;-60
2022/12/27 12:31:08;;;;;;;8.98;6.03;;;;;;;12.94;85.20;98749.78;5071442;28;20605;-60
2022/12/27 12:33:54;;;;;;;11.50;6.93;;;;;;;12.88;84.82;98746.78;5071066;28;20272;-60
2022/12/27 12:36:23;;;;;;;8.52;6.68;;;;;;;12.88;85.06;98759.75;5071687;28;20165;-60
2022/12/27 12:38:55;;;;;;;11.77;6.00;;;;;;;12.84;85.10;98753.97;5071106;28;20315;-60
2022/12/27 12:41:48;;;;;;;9.75;5.97;;;;;;;12.86;85.25;98756.47;5069015;28;20544;-60
2022/12/27 12:44:22;;;;;;;9.23;6.03;;;;;;;12.83;85.09;98757.50;5071512;28;20296;-60
2022/12/27 12:47:03;;;;;;;8.43;5.95;;;;;;;12.82;85.77;98765.41;5070736;28;20603;-60
2022/12/27 12:50:03;;;;;;;8.95;5.63;;;;;;;12.79;86.00;98755.25;5071629;28;20165;-60
2022/12/27 12:52:56;;;;;;;6.93;5.50;;;;;;;12.81;85.92;98763.75;5072596;28;20263;-60
2022/12/27 12:55:21;;;;;;;7.15;5.30;;;;;;;12.79;86.04;98760.44;5073059;28;20181;-60
2022/12/27 12:58:28;;;;;;;6.47;5.88;;;;;;;12.74;86.41;98754.75;5073833;28;20737;-60
2022/12/27 13:01:02;;;;;;;5.95;4.72;;;;;;;12.75;85.38;98762.44;5070616;28;20185;-60
2022/12/27 13:03:46;;;;;;;39.67;20.65;;;;;;;12.76;85.30;98765.84;5070411;28;20197;-60
2022/12/27 13:06:38;;;;;;;9.38;6.00;;;;;;;12.67;86.58;98758.72;5070737;28;20181;-59
2022/12/27 13:09:45;;;;;;;7.20;4.10;;;;;;;12.63;86.62;98763.31;5009049;28;20595;-59
2022/12/27 13:12:25;;;;;;;8.02;5.03;;;;;;;12.35;86.45;98718.63;4952973;29;20243;-59
2022/12/27 13:15:12;;;;;;;3.60;3.30;;;;;;;12.43;86.52;98744.91;4953115;29;20161;-59
2022/12/27 13:17:46;;;;;;;3.40;3.00;;;;;;;12.56;85.75;98769.03;4952639;29;20203;-59
2022/12/27 13:20:32;;;;;;;16.52;9.43;;;;;;;12.63;84.85;98778.88;4953011;29;20181;-60
2022/12/27 13:23:22;;;;;;;14.23;8.98;;;;;;;12.58;84.76;98783.56;4952375;29;20699;-59